createdAt,value
2018-04-22T00:00:10.364Z,100197.66
2018-04-22T00:02:39.339Z,100194.55
2018-04-22T00:05:08.114Z,100195.19
2018-04-22T00:07:36.926Z,100191.41
2018-04-22T00:10:05.823Z,100192.61
2018-04-22T00:12:34.673Z,100192.11
2018-04-22T00:15:03.509Z,100189.53
2018-04-22T00:17:34.952Z,100183.59
2018-04-22T00:20:03.813Z,100180.94
2018-04-22T00:22:32.637Z,100169.03
2018-04-22T00:25:02.346Z,100178.35
2018-04-22T00:27:31.229Z,100178.25
2018-04-22T00:30:00.073Z,100175.94
2018-04-22T00:32:28.976Z,100170.83
2018-04-22T00:34:57.831Z,100174.64
2018-04-22T00:37:26.611Z,100163.21
2018-04-22T00:39:57.115Z,100170.41
2018-04-22T00:42:25.900Z,100167.16
2018-04-22T00:44:55.099Z,100168.16
2018-04-22T00:47:24.801Z,100158.58
2018-04-22T00:49:53.640Z,100152.45
2018-04-22T00:52:22.495Z,100140.89
2018-04-22T00:57:25.172Z,100143.20
2018-04-22T00:59:54.111Z,100138.84
2018-04-22T01:02:23.959Z,100131.44
2018-04-22T01:04:53.740Z,100126.54
2018-04-22T01:07:23.583Z,100119.02
2018-04-22T01:09:52.649Z,100114.95
2018-04-22T01:12:22.671Z,100101.91
2018-04-22T01:14:52.482Z,100112.75
2018-04-22T01:17:24.853Z,100106.89
2018-04-22T01:19:53.987Z,100102.80
2018-04-22T01:22:22.945Z,100096.92
2018-04-22T01:24:52.043Z,100091.45
2018-04-22T01:27:21.041Z,100089.14
2018-04-22T01:29:50.117Z,100097.39
2018-04-22T01:32:19.988Z,100098.09
2018-04-22T01:34:49.418Z,100095.06
2018-04-22T01:37:18.249Z,100094.20
2018-04-22T01:39:48.815Z,100095.38
2018-04-22T01:42:17.641Z,100100.41
2018-04-22T01:44:46.425Z,100088.23
2018-04-22T01:47:18.009Z,100085.24
2018-04-22T01:49:47.011Z,100082.03
2018-04-22T01:52:16.775Z,100075.81
2018-04-22T01:54:45.929Z,100090.34
2018-04-22T01:57:15.599Z,100081.72
2018-04-22T01:59:45.444Z,100079.24
2018-04-22T02:02:15.358Z,100076.76
2018-04-22T02:04:44.351Z,100069.91
2018-04-22T02:07:13.893Z,100075.83
2018-04-22T02:09:42.845Z,100070.25
2018-04-22T02:12:12.600Z,100070.50
2018-04-22T02:14:42.474Z,100067.15
2018-04-22T02:17:11.463Z,100071.59
2018-04-22T02:19:41.643Z,100069.98
2018-04-22T02:22:10.686Z,100072.30
2018-04-22T02:24:40.493Z,100074.54
2018-04-22T02:27:09.489Z,100074.27
2018-04-22T02:29:38.535Z,100091.81
2018-04-22T02:32:08.399Z,100085.95
2018-04-22T02:34:37.293Z,100085.83
2018-04-22T02:37:06.298Z,100088.29
2018-04-22T02:39:35.280Z,100093.70
2018-04-22T02:42:04.270Z,100092.00
2018-04-22T02:44:33.266Z,100092.39
2018-04-22T02:47:02.253Z,100089.72
2018-04-22T02:49:31.121Z,100088.83
2018-04-22T02:52:06.120Z,100090.92
2018-04-22T02:54:35.090Z,100089.16
2018-04-22T02:57:04.072Z,100084.87
2018-04-22T02:59:34.373Z,100095.46
2018-04-22T03:02:03.482Z,100099.13
2018-04-22T03:04:32.505Z,100101.14
2018-04-22T03:07:01.475Z,100097.55
2018-04-22T03:09:30.375Z,100092.30
2018-04-22T03:11:59.389Z,100087.99
2018-04-22T03:17:02.050Z,100091.05
2018-04-22T03:19:31.162Z,100084.15
2018-04-22T03:22:00.257Z,100080.20
2018-04-22T03:24:29.251Z,100083.58
2018-04-22T03:26:58.187Z,100073.63
2018-04-22T03:29:28.017Z,100070.67
2018-04-22T03:31:56.955Z,100073.06
2018-04-22T03:34:25.856Z,100065.15
2018-04-22T03:36:55.022Z,100058.20
2018-04-22T03:39:24.039Z,100065.62
2018-04-22T03:41:53.041Z,100062.12
2018-04-22T03:44:28.381Z,100058.81
2018-04-22T03:46:57.313Z,100063.66
2018-04-22T03:49:26.132Z,100061.09
2018-04-22T03:51:54.972Z,100073.77
2018-04-22T03:54:23.844Z,100079.11
2018-04-22T03:56:52.633Z,100087.09
2018-04-22T03:59:22.304Z,100082.48
2018-04-22T04:01:51.086Z,100089.64
2018-04-22T04:04:19.831Z,100090.91
2018-04-22T04:06:49.541Z,100110.59
2018-04-22T04:09:18.355Z,100110.51
2018-04-22T04:11:47.182Z,100110.58
2018-04-22T04:14:16.155Z,100108.28
2018-04-22T04:16:45.036Z,100112.32
2018-04-22T04:19:25.903Z,100120.08
2018-04-22T04:22:06.667Z,100123.41
2018-04-22T04:24:47.656Z,100133.05
2018-04-22T04:27:37.950Z,100142.23
2018-04-22T04:30:06.967Z,100140.12
2018-04-22T04:32:35.951Z,100133.80
2018-04-22T04:35:05.037Z,100138.06
2018-04-22T04:37:34.389Z,100137.02
2018-04-22T04:40:04.364Z,100121.48
2018-04-22T04:42:33.369Z,100117.68
2018-04-22T04:45:02.356Z,100118.63
2018-04-22T04:47:31.284Z,100112.19
2018-04-22T04:50:00.319Z,100119.63
2018-04-22T04:52:35.792Z,100109.99
2018-04-22T04:55:04.755Z,100116.23
2018-04-22T04:57:40.530Z,100109.34
2018-04-22T05:00:10.288Z,100098.34
2018-04-22T05:02:39.244Z,100101.71
2018-04-22T05:05:08.437Z,100095.63
2018-04-22T05:07:37.328Z,100093.50
2018-04-22T05:10:07.453Z,100098.17
2018-04-22T05:12:36.755Z,100095.84
2018-04-22T05:15:05.710Z,100090.78
2018-04-22T05:17:34.738Z,100096.70
2018-04-22T05:20:03.937Z,100093.61
2018-04-22T05:22:32.884Z,100095.38
2018-04-22T05:25:02.000Z,100087.92
2018-04-22T05:27:31.221Z,100098.97
2018-04-22T05:30:00.156Z,100098.20
2018-04-22T05:32:29.226Z,100094.54
2018-04-22T05:34:58.208Z,100105.91
2018-04-22T05:37:27.202Z,100098.97
2018-04-22T05:39:56.202Z,100102.72
2018-04-22T05:42:25.393Z,100106.28
2018-04-22T05:44:55.586Z,100101.46
2018-04-22T05:47:24.572Z,100099.92
2018-04-22T05:52:27.245Z,100102.66
2018-04-22T05:54:56.262Z,100100.72
2018-04-22T05:57:28.211Z,100100.72
2018-04-22T05:59:57.154Z,100104.00
2018-04-22T06:02:26.102Z,100101.98
2018-04-22T06:04:55.046Z,100104.70
2018-04-22T06:07:23.981Z,100106.52
2018-04-22T06:09:52.928Z,100107.83
2018-04-22T06:12:22.929Z,100108.02
2018-04-22T06:14:52.907Z,100109.83
2018-04-22T06:17:22.374Z,100109.85
2018-04-22T06:19:51.461Z,100116.95
2018-04-22T06:22:20.464Z,100119.20
2018-04-22T06:24:50.176Z,100118.75
2018-04-22T06:27:19.164Z,100122.46
2018-04-22T06:29:48.015Z,100130.53
2018-04-22T06:32:17.977Z,100132.81
2018-04-22T06:37:22.044Z,100139.15
2018-04-22T06:39:52.294Z,100133.62
2018-04-22T06:42:21.407Z,100141.94
2018-04-22T06:44:50.877Z,100138.77
2018-04-22T06:47:19.823Z,100145.11
2018-04-22T06:49:49.904Z,100146.39
2018-04-22T06:52:18.839Z,100136.57
2018-04-22T06:54:47.829Z,100143.94
2018-04-22T06:57:16.801Z,100142.63
2018-04-22T06:59:45.748Z,100142.89
2018-04-22T07:02:14.743Z,100146.41
2018-04-22T07:04:44.263Z,100147.99
2018-04-22T07:07:13.211Z,100150.77
2018-04-22T07:09:42.104Z,100158.78
2018-04-22T07:12:11.505Z,100158.38
2018-04-22T07:14:40.602Z,100163.55
2018-04-22T07:17:09.808Z,100145.64
2018-04-22T07:19:39.622Z,100158.48
2018-04-22T07:22:08.650Z,100154.16
2018-04-22T07:24:37.722Z,100144.24
2018-04-22T07:27:06.872Z,100155.80
2018-04-22T07:29:35.842Z,100162.31
2018-04-22T07:32:05.715Z,100160.69
2018-04-22T07:34:34.666Z,100163.09
2018-04-22T07:37:04.026Z,100165.50
2018-04-22T07:39:32.895Z,100157.43
2018-04-22T07:42:03.575Z,100159.02
2018-04-22T07:44:32.605Z,100162.05
2018-04-22T07:47:01.567Z,100160.47
2018-04-22T07:49:31.355Z,100157.73
2018-04-22T07:52:00.982Z,100156.46
2018-04-22T07:54:30.493Z,100162.08
2018-04-22T07:57:00.338Z,100159.88
2018-04-22T07:59:30.014Z,100155.75
2018-04-22T08:02:00.033Z,100163.56
2018-04-22T08:04:30.692Z,100154.88
2018-04-22T08:07:01.069Z,100163.16
2018-04-22T08:09:31.040Z,100152.59
2018-04-22T08:12:00.155Z,100159.90
2018-04-22T08:14:29.139Z,100153.78
2018-04-22T08:16:58.094Z,100149.61
2018-04-22T08:19:28.091Z,100152.67
2018-04-22T08:21:57.153Z,100151.26
2018-04-22T08:24:26.105Z,100158.18
2018-04-22T08:26:56.834Z,100156.92
2018-04-22T08:29:25.860Z,100156.22
2018-04-22T08:31:54.982Z,100150.38
2018-04-22T08:34:25.809Z,100155.13
2018-04-22T08:36:54.787Z,100154.39
2018-04-22T08:39:24.635Z,100143.62
2018-04-22T08:44:29.320Z,100147.94
2018-04-22T08:46:58.417Z,100155.80
2018-04-22T08:49:29.658Z,100151.86
2018-04-22T08:51:58.699Z,100159.71
2018-04-22T08:54:27.663Z,100159.16
2018-04-22T08:56:57.677Z,100160.35
2018-04-22T08:59:26.561Z,100154.19
2018-04-22T09:01:55.431Z,100148.94
2018-04-22T09:04:25.216Z,100157.70
2018-04-22T09:06:55.315Z,100149.61
2018-04-22T09:09:24.276Z,100147.86
2018-04-22T09:11:53.377Z,100145.97
2018-04-22T09:14:22.365Z,100150.38
2018-04-22T09:16:51.477Z,100153.33
2018-04-22T09:19:22.091Z,100158.08
2018-04-22T09:21:51.090Z,100160.91
2018-04-22T09:24:20.081Z,100155.75
2018-04-22T09:26:52.147Z,100158.61
2018-04-22T09:29:21.703Z,100154.52
2018-04-22T09:31:51.473Z,100154.52
2018-04-22T09:34:21.569Z,100152.02
2018-04-22T09:36:50.585Z,100152.02
2018-04-22T09:39:19.471Z,100149.48
2018-04-22T09:41:52.409Z,100153.02
2018-04-22T09:44:21.299Z,100146.98
2018-04-22T09:46:51.271Z,100151.42
2018-04-22T09:49:20.265Z,100145.37
2018-04-22T09:51:50.282Z,100140.19
2018-04-22T09:54:19.297Z,100134.78
2018-04-22T09:56:50.088Z,100133.25
2018-04-22T09:59:19.027Z,100140.63
2018-04-22T10:01:48.720Z,100132.81
2018-04-22T10:04:17.919Z,100129.19
2018-04-22T10:06:46.934Z,100123.38
2018-04-22T10:09:17.440Z,100128.92
2018-04-22T10:11:46.472Z,100130.38
2018-04-22T10:14:15.383Z,100130.22
2018-04-22T10:16:45.139Z,100129.08
2018-04-22T10:19:14.343Z,100128.06
2018-04-22T10:21:43.357Z,100125.75
2018-04-22T10:24:12.278Z,100121.25
2018-04-22T10:26:41.359Z,100122.56
2018-04-22T10:29:10.468Z,100124.83
2018-04-22T10:31:39.659Z,100123.81
2018-04-22T10:34:10.464Z,100128.97
2018-04-22T10:36:39.570Z,100130.62
2018-04-22T10:39:08.750Z,100126.48
2018-04-22T10:41:40.211Z,100126.44
2018-04-22T10:44:09.238Z,100128.92
2018-04-22T10:46:38.205Z,100131.69
2018-04-22T10:49:07.391Z,100127.15
2018-04-22T10:51:36.391Z,100122.70
2018-04-22T10:54:06.245Z,100122.64
2018-04-22T10:56:36.316Z,100129.38
2018-04-22T10:59:05.319Z,100127.46
2018-04-22T11:01:34.445Z,100135.45
2018-04-22T11:04:03.447Z,100127.05
2018-04-22T11:06:32.507Z,100131.96
2018-04-22T11:09:01.591Z,100130.43
2018-04-22T11:11:31.367Z,100126.33
2018-04-22T11:14:00.308Z,100123.48
2018-04-22T11:16:29.443Z,100127.38
2018-04-22T11:18:58.701Z,100121.73
2018-04-22T11:21:28.413Z,100121.34
2018-04-22T11:23:58.534Z,100121.45
2018-04-22T11:29:01.776Z,100119.57
2018-04-22T11:31:31.768Z,100117.55
2018-04-22T11:34:01.608Z,100119.94
2018-04-22T11:36:30.564Z,100115.70
2018-04-22T11:38:59.973Z,100114.56
2018-04-22T11:44:02.984Z,100108.86
2018-04-22T11:46:31.870Z,100112.19
2018-04-22T11:49:00.772Z,100108.34
2018-04-22T11:51:29.897Z,100112.41
2018-04-22T11:53:58.874Z,100104.83
2018-04-22T11:56:28.570Z,100102.91
2018-04-22T11:58:58.468Z,100107.90
2018-04-22T12:01:27.367Z,100100.20
2018-04-22T12:03:57.233Z,100104.27
2018-04-22T12:06:28.949Z,100104.72
2018-04-22T12:08:57.835Z,100108.33
2018-04-22T12:11:26.928Z,100105.23
2018-04-22T12:13:55.923Z,100105.55
2018-04-22T12:16:25.127Z,100103.38
2018-04-22T12:18:54.398Z,100108.41
2018-04-22T12:21:23.629Z,100106.20
2018-04-22T12:23:52.869Z,100102.74
2018-04-22T12:26:21.922Z,100108.88
2018-04-22T12:28:51.051Z,100109.48
2018-04-22T12:31:20.932Z,100105.50
2018-04-22T12:33:50.950Z,100108.25
2018-04-22T12:36:19.845Z,100111.95
2018-04-22T12:38:48.937Z,100105.41
2018-04-22T12:41:17.872Z,100104.72
2018-04-22T12:43:47.741Z,100097.25
2018-04-22T12:46:18.130Z,100099.55
2018-04-22T12:48:47.104Z,100094.98
2018-04-22T12:51:16.903Z,100100.30
2018-04-22T12:53:46.184Z,100097.39
2018-04-22T12:56:16.202Z,100103.74
2018-04-22T12:58:45.758Z,100105.60
2018-04-22T13:01:14.710Z,100109.08
2018-04-22T13:03:45.024Z,100104.09
2018-04-22T13:06:14.017Z,100101.37
2018-04-22T13:08:42.942Z,100103.03
2018-04-22T13:11:11.903Z,100096.45
2018-04-22T13:13:48.134Z,100097.03
2018-04-22T13:16:17.264Z,100100.19
2018-04-22T13:18:46.260Z,100098.28
2018-04-22T13:23:50.391Z,100094.92
2018-04-22T13:26:20.339Z,100096.21
2018-04-22T13:28:49.309Z,100089.58
2018-04-22T13:31:18.400Z,100095.07
2018-04-22T13:33:48.324Z,100098.80
2018-04-22T13:36:17.334Z,100085.27
2018-04-22T13:38:49.885Z,100084.22
2018-04-22T13:41:18.880Z,100084.97
2018-04-22T13:43:47.833Z,100086.55
2018-04-22T13:46:16.970Z,100084.19
2018-04-22T13:48:45.962Z,100076.59
2018-04-22T13:51:14.931Z,100076.45
2018-04-22T13:53:45.487Z,100075.77
2018-04-22T13:56:14.617Z,100073.02
2018-04-22T13:58:43.570Z,100078.25
2018-04-22T14:01:16.923Z,100078.18
2018-04-22T14:03:46.676Z,100070.77
2018-04-22T14:06:17.388Z,100067.09
2018-04-22T14:08:46.507Z,100070.61
2018-04-22T14:11:15.548Z,100067.94
2018-04-22T14:13:51.246Z,100069.42
2018-04-22T14:16:20.456Z,100072.59
2018-04-22T14:18:49.861Z,100068.34
2018-04-22T14:21:19.776Z,100071.08
2018-04-22T14:23:48.731Z,100069.02
2018-04-22T14:26:17.661Z,100064.22
2018-04-22T14:28:46.656Z,100062.58
2018-04-22T14:31:16.469Z,100065.17
2018-04-22T14:33:45.450Z,100062.30
2018-04-22T14:36:14.669Z,100062.75
2018-04-22T14:38:44.270Z,100055.38
2018-04-22T14:41:13.329Z,100058.83
2018-04-22T14:43:49.060Z,100051.11
2018-04-22T14:46:17.905Z,100053.75
2018-04-22T14:49:00.463Z,100052.48
2018-04-22T14:51:29.310Z,100042.95
2018-04-22T14:53:58.254Z,100047.25
2018-04-22T14:56:27.198Z,100046.64
2018-04-22T14:58:56.740Z,100048.66
2018-04-22T15:01:25.696Z,100049.00
2018-04-22T15:03:55.348Z,100043.50
2018-04-22T15:06:24.291Z,100040.31
2018-04-22T15:08:53.950Z,100044.37
2018-04-22T15:11:23.865Z,100042.53
2018-04-22T15:13:54.662Z,100045.66
2018-04-22T15:16:27.135Z,100041.94
2018-04-22T15:18:56.236Z,100039.97
2018-04-22T15:21:25.129Z,100039.20
2018-04-22T15:23:54.120Z,100032.73
2018-04-22T15:26:23.256Z,100034.91
2018-04-22T15:28:52.153Z,100032.03
2018-04-22T15:31:21.817Z,100033.41
2018-04-22T15:33:50.910Z,100029.58
2018-04-22T15:36:19.937Z,100027.34
2018-04-22T15:38:51.544Z,100029.14
2018-04-22T15:41:20.579Z,100029.07
2018-04-22T15:43:50.272Z,100018.95
2018-04-22T15:46:20.077Z,100019.32
2018-04-22T15:48:49.068Z,100011.80
2018-04-22T15:51:18.072Z,100007.59
2018-04-22T15:53:47.070Z,100008.37
2018-04-22T15:56:16.822Z,100011.91
2018-04-22T15:58:46.814Z,100013.75
2018-04-22T16:01:16.864Z,100009.64
2018-04-22T16:03:45.808Z,100011.17
2018-04-22T16:06:14.804Z,100011.34
2018-04-22T16:08:45.722Z,100006.07
2018-04-22T16:11:14.733Z,100012.74
2018-04-22T16:13:44.402Z,100016.22
2018-04-22T16:16:14.423Z,100017.26
2018-04-22T16:18:43.416Z,100016.84
2018-04-22T16:21:12.359Z,100017.96
2018-04-22T16:23:42.137Z,100018.47
2018-04-22T16:26:12.078Z,100014.42
2018-04-22T16:28:41.386Z,100016.70
2018-04-22T16:31:13.656Z,100011.54
2018-04-22T16:33:42.643Z,100016.61
2018-04-22T16:36:12.536Z,100013.11
2018-04-22T16:38:41.660Z,100015.97
2018-04-22T16:41:10.756Z,100017.05
2018-04-22T16:43:39.844Z,100018.61
2018-04-22T16:46:11.612Z,100016.31
2018-04-22T16:48:40.606Z,100017.41
2018-04-22T16:51:09.541Z,100022.92
2018-04-22T16:53:38.838Z,100025.78
2018-04-22T16:56:08.547Z,100023.06
2018-04-22T16:58:37.498Z,100031.48
2018-04-22T17:01:07.196Z,100031.81
2018-04-22T17:03:36.040Z,100044.59
2018-04-22T17:06:04.890Z,100037.23
2018-04-22T17:08:33.741Z,100041.54
2018-04-22T17:11:02.584Z,100038.56
2018-04-22T17:13:31.501Z,100038.31
2018-04-22T17:16:01.168Z,100041.94
2018-04-22T17:18:29.993Z,100040.34
2018-04-22T17:20:58.802Z,100041.34
2018-04-22T17:23:27.701Z,100039.47
2018-04-22T17:25:56.490Z,100038.67
2018-04-22T17:28:25.345Z,100036.73
2018-04-22T17:30:55.006Z,100044.42
2018-04-22T17:33:23.871Z,100044.94
2018-04-22T17:35:52.717Z,100045.53
2018-04-22T17:38:27.426Z,100048.80
2018-04-22T17:40:56.205Z,100046.84
2018-04-22T17:43:25.166Z,100045.70
2018-04-22T17:45:54.052Z,100048.92
2018-04-22T17:48:23.868Z,100050.22
2018-04-22T17:50:52.693Z,100049.65
2018-04-22T17:53:21.643Z,100047.37
2018-04-22T17:55:50.596Z,100052.66
2018-04-22T17:58:19.419Z,100055.68
2018-04-22T18:00:48.267Z,100051.82
2018-04-22T18:03:17.115Z,100055.84
2018-04-22T18:05:45.923Z,100060.16
2018-04-22T18:08:15.680Z,100055.11
2018-04-22T18:10:44.539Z,100061.70
2018-04-22T18:13:13.390Z,100060.48
2018-04-22T18:15:42.254Z,100060.10
2018-04-22T18:18:11.045Z,100058.36
2018-04-22T18:20:39.847Z,100055.62
2018-04-22T18:23:08.708Z,100056.20
2018-04-22T18:25:37.525Z,100050.15
2018-04-22T18:28:06.345Z,100055.16
2018-04-22T18:30:36.847Z,100050.50
2018-04-22T18:33:05.687Z,100051.89
2018-04-22T18:35:34.503Z,100053.53
2018-04-22T18:38:05.022Z,100055.68
2018-04-22T18:40:34.226Z,100053.84
2018-04-22T18:43:03.111Z,100053.49
2018-04-22T18:45:31.978Z,100047.16
2018-04-22T18:48:00.865Z,100055.43
2018-04-22T18:50:29.748Z,100054.89
2018-04-22T18:52:58.678Z,100053.02
2018-04-22T18:55:27.550Z,100048.55
2018-04-22T18:57:56.378Z,100046.48
2018-04-22T19:02:58.960Z,100049.59
2018-04-22T19:05:30.245Z,100051.39
2018-04-22T19:10:33.476Z,100048.95
2018-04-22T19:13:02.290Z,100046.50
2018-04-22T19:15:31.119Z,100044.99
2018-04-22T19:18:01.584Z,100052.45
2018-04-22T19:20:30.613Z,100051.03
2018-04-22T19:23:02.518Z,100045.02
2018-04-22T19:25:31.468Z,100047.84
2018-04-22T19:28:02.549Z,100044.27
2018-04-22T19:30:32.348Z,100047.34
2018-04-22T19:33:02.168Z,100044.96
2018-04-22T19:35:32.707Z,100036.66
2018-04-22T19:38:02.138Z,100044.25
2018-04-22T19:40:31.208Z,100048.73
2018-04-22T19:43:00.190Z,100045.00
2018-04-22T19:45:30.781Z,100039.42
2018-04-22T19:48:00.133Z,100045.06
2018-04-22T19:50:29.016Z,100040.52
2018-04-22T19:52:58.126Z,100036.70
2018-04-22T19:55:27.043Z,100034.67
2018-04-22T19:57:56.718Z,100031.68
2018-04-22T20:00:27.378Z,100031.30
2018-04-22T20:02:56.244Z,100029.14
2018-04-22T20:05:25.336Z,100025.44
2018-04-22T20:07:55.164Z,100024.33
2018-04-22T20:10:24.138Z,100022.06
2018-04-22T20:12:53.040Z,100022.98
2018-04-22T20:15:22.172Z,100019.33
2018-04-22T20:17:51.330Z,100019.84
2018-04-22T20:20:20.321Z,100015.44
2018-04-22T20:22:50.141Z,100012.36
2018-04-22T20:25:19.126Z,100015.29
2018-04-22T20:27:48.226Z,100017.66
2018-04-22T20:32:51.639Z,100019.14
2018-04-22T20:35:20.674Z,100023.55
2018-04-22T20:40:23.034Z,100024.09
2018-04-22T20:42:52.954Z,100020.46
2018-04-22T20:45:22.936Z,100018.87
2018-04-22T20:47:51.958Z,100012.03
2018-04-22T20:50:21.171Z,100016.48
2018-04-22T20:52:57.813Z,100014.42
2018-04-22T20:55:26.920Z,100011.62
2018-04-22T20:57:55.996Z,100012.05
2018-04-22T21:00:25.124Z,100007.88
2018-04-22T21:02:54.114Z,100015.31
2018-04-22T21:05:23.084Z,100004.48
2018-04-22T21:07:54.282Z,100003.14
2018-04-22T21:10:23.374Z,100003.78
2018-04-22T21:12:52.318Z,100007.96
2018-04-22T21:15:22.336Z,100012.42
2018-04-22T21:17:51.557Z,100008.57
2018-04-22T21:20:20.416Z,100002.91
2018-04-22T21:22:49.433Z,99998.20
2018-04-22T21:25:18.369Z,100002.86
2018-04-22T21:27:48.148Z,100001.42
2018-04-22T21:30:17.148Z,99996.15
2018-04-22T21:32:46.469Z,100003.05
2018-04-22T21:35:15.539Z,99992.61
2018-04-22T21:37:45.366Z,99996.84
2018-04-22T21:40:14.348Z,99997.77
2018-04-22T21:42:44.162Z,99993.20
2018-04-22T21:45:13.926Z,99991.75
2018-04-22T21:47:43.018Z,99992.33
2018-04-22T21:50:11.958Z,99994.34
2018-04-22T21:52:46.082Z,99995.67
2018-04-22T21:55:16.006Z,99998.98
2018-04-22T21:57:44.987Z,99990.86
2018-04-22T22:00:14.952Z,99993.33
2018-04-22T22:02:44.920Z,99997.34
2018-04-22T22:05:14.016Z,99988.80
2018-04-22T22:07:44.750Z,99991.80
2018-04-22T22:10:14.356Z,99989.53
2018-04-22T22:12:43.260Z,99987.98
2018-04-22T22:15:13.100Z,99988.00
2018-04-22T22:17:43.082Z,99990.59
2018-04-22T22:20:12.968Z,99986.33
2018-04-22T22:22:42.025Z,99975.53
2018-04-22T22:25:11.626Z,99980.13
2018-04-22T22:27:40.590Z,99974.45
2018-04-22T22:30:09.687Z,99975.55
2018-04-22T22:32:38.801Z,99973.08
2018-04-22T22:35:08.498Z,99968.86
2018-04-22T22:37:39.248Z,99966.91
2018-04-22T22:40:08.365Z,99962.31
2018-04-22T22:42:37.325Z,99962.40
2018-04-22T22:45:06.625Z,99966.80
2018-04-22T22:47:36.471Z,99957.62
2018-04-22T22:50:05.493Z,99959.03
2018-04-22T22:52:35.332Z,99955.23
2018-04-22T22:55:05.264Z,99949.13
2018-04-22T22:57:34.773Z,99950.38
2018-04-22T23:00:06.268Z,99945.89
2018-04-22T23:02:35.824Z,99936.12
2018-04-22T23:05:05.435Z,99943.31
2018-04-22T23:07:35.296Z,99941.86
2018-04-22T23:10:04.366Z,99944.32
2018-04-22T23:12:33.281Z,99934.69
2018-04-22T23:15:04.078Z,99938.78
2018-04-22T23:17:33.873Z,99932.70
2018-04-22T23:20:02.786Z,99923.59
2018-04-22T23:22:32.289Z,99925.95
2018-04-22T23:25:02.517Z,99930.03
2018-04-22T23:27:31.512Z,99929.91
2018-04-22T23:30:02.034Z,99925.71
2018-04-22T23:32:31.135Z,99930.63
2018-04-22T23:35:00.247Z,99925.77
2018-04-22T23:37:29.372Z,99926.39
2018-04-22T23:39:58.311Z,99927.44
2018-04-22T23:42:27.184Z,99926.09
2018-04-22T23:44:57.102Z,99925.14
2018-04-22T23:47:26.116Z,99919.73
2018-04-22T23:49:55.047Z,99923.19
2018-04-22T23:52:24.827Z,99925.60
2018-04-22T23:54:53.815Z,99922.64
2018-04-22T23:57:22.724Z,99922.64
